sensor_id;sensor_type;location;lat;lon;timestamp;pressure;altitude;pressure_sealevel;temperature;humidity
57374;BME280;43964;53.890;25.340;2023-05-21T00:02:03;1034;;;13.7;44.4
57374;BME280;43964;53.890;25.340;2023-05-21T00:06:57;1034.1;;;13.6;44.5
57374;BME280;43964;53.890;25.340;2023-05-21T00:11:31;1034.1;;;13.5;44.6
57374;BME280;43964;53.890;25.340;2023-05-21T00:16:43;1034.1;;;13.5;44.7
57374;BME280;43964;53.890;25.340;2023-05-21T00:22:03;1034.1;;;13.4;45
57374;BME280;43964;53.890;25.340;2023-05-21T00:27:19;1034;;;13.4;45.4
57374;BME280;43964;53.890;25.340;2023-05-21T00:32:19;1034;;;13.3;45.6
57374;BME280;43964;53.890;25.340;2023-05-21T00:37:17;1034.1;;;13.3;45.8
57374;BME280;43964;53.890;25.340;2023-05-21T00:41:57;1034.1;;;13.2;46
57374;BME280;43964;53.890;25.340;2023-05-21T00:46:31;1034.1;;;13.2;46.1
57374;BME280;43964;53.890;25.340;2023-05-21T00:52:19;1034.1;;;13.1;46.1
57374;BME280;43964;53.890;25.340;2023-05-21T00:57:19;1034.2;;;13.1;46
57374;BME280;43964;53.890;25.340;2023-05-21T01:01:29;1034.2;;;13.1;46
57374;BME280;43964;53.890;25.340;2023-05-21T01:07:19;1034.2;;;13.1;46.1
57374;BME280;43964;53.890;25.340;2023-05-21T01:12:11;1034.3;;;13;46.2
57374;BME280;43964;53.890;25.340;2023-05-21T01:16:31;1034.3;;;12.9;46.4
57374;BME280;43964;53.890;25.340;2023-05-21T01:21:40;1034.3;;;12.8;46.8
57374;BME280;43964;53.890;25.340;2023-05-21T01:26:43;1034.2;;;12.7;47.4
57374;BME280;43964;53.890;25.340;2023-05-21T01:32:06;1034.2;;;12.6;47.8
57374;BME280;43964;53.890;25.340;2023-05-21T01:36:37;1034.2;;;12.5;48.1
57374;BME280;43964;53.890;25.340;2023-05-21T01:42:09;1034.2;;;12.4;48.3
57374;BME280;43964;53.890;25.340;2023-05-21T01:47:19;1034.2;;;12.4;48.5
57374;BME280;43964;53.890;25.340;2023-05-21T01:51:43;1034.2;;;12.3;48.5
57374;BME280;43964;53.890;25.340;2023-05-21T01:56:51;1034.2;;;12.2;48.6
57374;BME280;43964;53.890;25.340;2023-05-21T02:01:31;1034.2;;;12.1;48.8
57374;BME280;43964;53.890;25.340;2023-05-21T02:06:49;1034.2;;;12.1;48.9
57374;BME280;43964;53.890;25.340;2023-05-21T02:12:19;1034.2;;;11.9;49.2
57374;BME280;43964;53.890;25.340;2023-05-21T02:16:51;1034.3;;;11.8;49.4
57374;BME280;43964;53.890;25.340;2023-05-21T02:22:11;1034.2;;;11.8;49.8
57374;BME280;43964;53.890;25.340;2023-05-21T02:26:43;1034.2;;;11.7;50.3
57374;BME280;43964;53.890;25.340;2023-05-21T02:31:41;1034.2;;;11.8;50.4
57374;BME280;43964;53.890;25.340;2023-05-21T02:36:43;1034.2;;;11.9;50.4
57374;BME280;43964;53.890;25.340;2023-05-21T02:41:31;1034.3;;;12;50.4
57374;BME280;43964;53.890;25.340;2023-05-21T02:46:31;1034.3;;;12.2;50.2
57374;BME280;43964;53.890;25.340;2023-05-21T02:52:19;1034.3;;;12.5;49.8
57374;BME280;43964;53.890;25.340;2023-05-21T02:56:41;1034.3;;;13;49.2
57374;BME280;43964;53.890;25.340;2023-05-21T03:02:19;1034.2;;;13.9;48.3
57374;BME280;43964;53.890;25.340;2023-05-21T03:06:43;1034.2;;;14.7;47.5
57374;BME280;43964;53.890;25.340;2023-05-21T03:11:45;1034.2;;;15.5;46.7
57374;BME280;43964;53.890;25.340;2023-05-21T03:16:31;1034.1;;;16.6;45.3
57374;BME280;43964;53.890;25.340;2023-05-21T03:22:13;1034.1;;;18;43.3
57374;BME280;43964;53.890;25.340;2023-05-21T03:27:19;1034.1;;;19.3;41.5
57374;BME280;43964;53.890;25.340;2023-05-21T03:31:31;1034;;;21.1;39.2
57374;BME280;43964;53.890;25.340;2023-05-21T03:37:19;1034;;;23.8;36
57374;BME280;43964;53.890;25.340;2023-05-21T03:42:11;1034;;;26.7;33.7
57374;BME280;43964;53.890;25.340;2023-05-21T03:47:11;1033.9;;;29.1;31.7
57374;BME280;43964;53.890;25.340;2023-05-21T03:51:35;1033.8;;;30.6;30.2
57374;BME280;43964;53.890;25.340;2023-05-21T03:56:41;1033.8;;;32.4;28.4
57374;BME280;43964;53.890;25.340;2023-05-21T04:02:03;1033.8;;;34;26.6
57374;BME280;43964;53.890;25.340;2023-05-21T04:06:41;1033.8;;;34.1;25.6
57374;BME280;43964;53.890;25.340;2023-05-21T04:12:09;1033.8;;;34.8;24.2
57374;BME280;43964;53.890;25.340;2023-05-21T04:17:11;1033.7;;;36.6;21.2
57374;BME280;43964;53.890;25.340;2023-05-21T04:21:55;1033.7;;;38.3;19.4
57374;BME280;43964;53.890;25.340;2023-05-21T04:27:05;1033.7;;;39.3;18.4
57374;BME280;43964;53.890;25.340;2023-05-21T04:31:47;1033.7;;;40.7;17.2
57374;BME280;43964;53.890;25.340;2023-05-21T04:36:43;1033.7;;;41.4;16.4
57374;BME280;43964;53.890;25.340;2023-05-21T04:42:21;1033.7;;;41.2;16.5
57374;BME280;43964;53.890;25.340;2023-05-21T04:47:05;1033.7;;;41.5;16.1
57374;BME280;43964;53.890;25.340;2023-05-21T04:52:11;1033.7;;;42;15.4
57374;BME280;43964;53.890;25.340;2023-05-21T04:56:31;1033.6;;;43.1;14.6
57374;BME280;43964;53.890;25.340;2023-05-21T05:01:55;1033.7;;;44.2;13.9
57374;BME280;43964;53.890;25.340;2023-05-21T05:06:57;1033.6;;;45;13.3
57374;BME280;43964;53.890;25.340;2023-05-21T05:11:45;1033.6;;;45.6;12.2
57374;BME280;43964;53.890;25.340;2023-05-21T05:16:37;1033.6;;;45.7;11.8
57374;BME280;43964;53.890;25.340;2023-05-21T05:22:11;1033.6;;;45.6;11.6
57374;BME280;43964;53.890;25.340;2023-05-21T05:26:31;1033.7;;;45.2;11.4
57374;BME280;43964;53.890;25.340;2023-05-21T05:32:19;1033.7;;;43;12.3
57374;BME280;43964;53.890;25.340;2023-05-21T05:37:19;1033.8;;;38.8;14.7
57374;BME280;43964;53.890;25.340;2023-05-21T05:41:57;1033.7;;;35.5;16.6
57374;BME280;43964;53.890;25.340;2023-05-21T05:46:31;1033.7;;;32.4;18.1
57374;BME280;43964;53.890;25.340;2023-05-21T05:52:03;1033.7;;;30.5;19.1
57374;BME280;43964;53.890;25.340;2023-05-21T05:57:19;1033.7;;;29.3;20
57374;BME280;43964;53.890;25.340;2023-05-21T06:01:41;1033.7;;;27.7;21.1
57374;BME280;43964;53.890;25.340;2023-05-21T06:07:01;1033.7;;;27.1;22
57374;BME280;43964;53.890;25.340;2023-05-21T06:11:45;1033.6;;;26.7;22.7
57374;BME280;43964;53.890;25.340;2023-05-21T06:16:57;1033.6;;;26.5;24
57374;BME280;43964;53.890;25.340;2023-05-21T06:21:43;1033.6;;;26.5;24.1
57374;BME280;43964;53.890;25.340;2023-05-21T06:26:55;1033.6;;;26.5;24.3
57374;BME280;43964;53.890;25.340;2023-05-21T06:32:05;1033.5;;;26.5;24.4
57374;BME280;43964;53.890;25.340;2023-05-21T06:37:03;1033.5;;;26.6;24.4
57374;BME280;43964;53.890;25.340;2023-05-21T06:42:11;1033.4;;;26.7;24.6
57374;BME280;43964;53.890;25.340;2023-05-21T06:47:19;1033.3;;;26.9;24.9
57374;BME280;43964;53.890;25.340;2023-05-21T06:51:45;1033.3;;;26.7;24.7
57374;BME280;43964;53.890;25.340;2023-05-21T06:56:53;1033.3;;;26.8;24.6
57374;BME280;43964;53.890;25.340;2023-05-21T07:02:03;1033.3;;;27;24.5
57374;BME280;43964;53.890;25.340;2023-05-21T07:06:49;1033.3;;;26.9;24.3
57374;BME280;43964;53.890;25.340;2023-05-21T07:12:05;1033.1;;;27;24.3
57374;BME280;43964;53.890;25.340;2023-05-21T07:17:03;1033.1;;;26.9;24.1
57374;BME280;43964;53.890;25.340;2023-05-21T07:22:19;1033;;;27;23.8
57374;BME280;43964;53.890;25.340;2023-05-21T07:27:05;1032.9;;;27;23.6
57374;BME280;43964;53.890;25.340;2023-05-21T07:31:55;1032.9;;;27;23.6
57374;BME280;43964;53.890;25.340;2023-05-21T07:36:57;1032.9;;;26.9;24
57374;BME280;43964;53.890;25.340;2023-05-21T07:41:43;1032.8;;;26.9;23.8
57374;BME280;43964;53.890;25.340;2023-05-21T07:47:03;1032.9;;;26.6;23.9
57374;BME280;43964;53.890;25.340;2023-05-21T07:52:19;1032.8;;;26.2;24
57374;BME280;43964;53.890;25.340;2023-05-21T07:56:55;1032.8;;;25.8;24.2
57374;BME280;43964;53.890;25.340;2023-05-21T08:02:19;1032.7;;;25.9;24.3
57374;BME280;43964;53.890;25.340;2023-05-21T08:07:19;1032.7;;;26.2;24.3
57374;BME280;43964;53.890;25.340;2023-05-21T08:11:43;1032.6;;;26.1;24.5
57374;BME280;43964;53.890;25.340;2023-05-21T08:16:49;1032.6;;;26.2;24.6
57374;BME280;43964;53.890;25.340;2023-05-21T08:22:03;1032.5;;;26.1;24.8
57374;BME280;43964;53.890;25.340;2023-05-21T08:27:19;1032.5;;;26.3;24.4
57374;BME280;43964;53.890;25.340;2023-05-21T08:31:43;1032.5;;;26.3;24
57374;BME280;43964;53.890;25.340;2023-05-21T08:37:03;1032.5;;;25.9;23.7
57374;BME280;43964;53.890;25.340;2023-05-21T08:41:43;1032.5;;;25.7;23.6
57374;BME280;43964;53.890;25.340;2023-05-21T08:46:31;1032.4;;;25.5;23.5
57374;BME280;43964;53.890;25.340;2023-05-21T08:51:49;1032.4;;;25.5;23.2
57374;BME280;43964;53.890;25.340;2023-05-21T08:56:55;1032.4;;;25;23.5
57374;BME280;43964;53.890;25.340;2023-05-21T09:02:05;1032.4;;;24.8;23.8
57374;BME280;43964;53.890;25.340;2023-05-21T09:07:19;1032.3;;;24.9;23.8
57374;BME280;43964;53.890;25.340;2023-05-21T09:12:11;1032.2;;;25.2;23.9
57374;BME280;43964;53.890;25.340;2023-05-21T09:17:19;1032.2;;;25.3;24.1
57374;BME280;43964;53.890;25.340;2023-05-21T09:22:11;1032.2;;;25.1;24.1
57374;BME280;43964;53.890;25.340;2023-05-21T09:27:19;1032.1;;;25.1;24.1
57374;BME280;43964;53.890;25.340;2023-05-21T09:32:07;1032.1;;;25.1;24.1
57374;BME280;43964;53.890;25.340;2023-05-21T09:36:43;1032.1;;;25.3;24.2
57374;BME280;43964;53.890;25.340;2023-05-21T09:42:21;1032.1;;;25.4;24
57374;BME280;43964;53.890;25.340;2023-05-21T09:47:11;1032;;;25.1;23.7
57374;BME280;43964;53.890;25.340;2023-05-21T09:51:43;1032;;;25;23.7
57374;BME280;43964;53.890;25.340;2023-05-21T09:56:39;1032;;;25;23.8
57374;BME280;43964;53.890;25.340;2023-05-21T10:01:53;1031.9;;;25;23.8
57374;BME280;43964;53.890;25.340;2023-05-21T10:07:03;1031.8;;;24.9;23.8
57374;BME280;43964;53.890;25.340;2023-05-21T10:11:42;1031.9;;;25.1;23.8
57374;BME280;43964;53.890;25.340;2023-05-21T10:17:09;1031.9;;;25.1;23.8
57374;BME280;43964;53.890;25.340;2023-05-21T10:22:17;1031.9;;;25.3;23.8
57374;BME280;43964;53.890;25.340;2023-05-21T10:26:29;1031.9;;;25.4;23.7
57374;BME280;43964;53.890;25.340;2023-05-21T10:31:45;1031.8;;;25.3;23.6
57374;BME280;43964;53.890;25.340;2023-05-21T10:37:03;1031.8;;;25.3;23.7
57374;BME280;43964;53.890;25.340;2023-05-21T10:41:45;1031.7;;;25.3;23.6
57374;BME280;43964;53.890;25.340;2023-05-21T10:47:27;1031.7;;;25.4;23.7
57374;BME280;43964;53.890;25.340;2023-05-21T10:52:06;1031.6;;;25.4;23.8
57374;BME280;43964;53.890;25.340;2023-05-21T10:56:58;1031.4;;;25.7;23.7
57374;BME280;43964;53.890;25.340;2023-05-21T11:01:31;1031.3;;;26.1;23.9
57374;BME280;43964;53.890;25.340;2023-05-21T11:06:56;1031.3;;;26.4;23.7
57374;BME280;43964;53.890;25.340;2023-05-21T11:11:57;1031.2;;;26.7;23.4
57374;BME280;43964;53.890;25.340;2023-05-21T11:16:49;1031.2;;;26.4;23.4
57374;BME280;43964;53.890;25.340;2023-05-21T11:21:33;1031.2;;;26.3;23.3
57374;BME280;43964;53.890;25.340;2023-05-21T11:27:30;1031.2;;;26;23
57374;BME280;43964;53.890;25.340;2023-05-21T11:31:44;1031.2;;;25.9;23.4
57374;BME280;43964;53.890;25.340;2023-05-21T11:37:33;1031.2;;;25.8;23.6
57374;BME280;43964;53.890;25.340;2023-05-21T11:42:09;1031.1;;;26;23.6
57374;BME280;43964;53.890;25.340;2023-05-21T11:46:31;1031.1;;;26.2;23.5
57374;BME280;43964;53.890;25.340;2023-05-21T11:51:43;1031;;;26.4;23.4
57374;BME280;43964;53.890;25.340;2023-05-21T11:57:15;1031;;;26.4;23.4
57374;BME280;43964;53.890;25.340;2023-05-21T12:02:15;1031;;;26.4;23.4
57374;BME280;43964;53.890;25.340;2023-05-21T12:06:31;1031.1;;;26;23.6
57374;BME280;43964;53.890;25.340;2023-05-21T12:12:17;1031.1;;;25.5;23.7
57374;BME280;43964;53.890;25.340;2023-05-21T12:16:57;1031;;;25.4;23.9
57374;BME280;43964;53.890;25.340;2023-05-21T12:21:31;1030.9;;;25.6;24
57374;BME280;43964;53.890;25.340;2023-05-21T12:26:43;1030.9;;;26.2;24
57374;BME280;43964;53.890;25.340;2023-05-21T12:31:57;1030.9;;;26.2;23.9
57374;BME280;43964;53.890;25.340;2023-05-21T12:37:05;1030.9;;;25.6;24.2
57374;BME280;43964;53.890;25.340;2023-05-21T12:41:52;1030.9;;;25.1;24.3
57374;BME280;43964;53.890;25.340;2023-05-21T12:47:11;1030.9;;;25.3;24.3
57374;BME280;43964;53.890;25.340;2023-05-21T12:52:19;1030.8;;;25.7;24.2
57374;BME280;43964;53.890;25.340;2023-05-21T12:56:43;1030.7;;;25.8;24
57374;BME280;43964;53.890;25.340;2023-05-21T13:02:05;1030.7;;;25.9;23.9
57374;BME280;43964;53.890;25.340;2023-05-21T13:06:55;1030.8;;;25.5;23.7
57374;BME280;43964;53.890;25.340;2023-05-21T13:11:31;1030.8;;;25;23.8
57374;BME280;43964;53.890;25.340;2023-05-21T13:17:07;1030.8;;;24.6;24
57374;BME280;43964;53.890;25.340;2023-05-21T13:22:03;1030.7;;;24.8;24.2
57374;BME280;43964;53.890;25.340;2023-05-21T13:27:11;1030.6;;;25.4;24
57374;BME280;43964;53.890;25.340;2023-05-21T13:31:31;1030.6;;;25.8;23.9
57374;BME280;43964;53.890;25.340;2023-05-21T13:36:31;1030.6;;;25.9;23.9
57374;BME280;43964;53.890;25.340;2023-05-21T13:41:45;1030.6;;;25.7;23.9
57374;BME280;43964;53.890;25.340;2023-05-21T13:46:49;1030.5;;;25.6;23.9
57374;BME280;43964;53.890;25.340;2023-05-21T13:51:31;1030.5;;;25.6;23.8
57374;BME280;43964;53.890;25.340;2023-05-21T13:57:19;1030.4;;;25.8;23.7
57374;BME280;43964;53.890;25.340;2023-05-21T14:02:11;1030.3;;;26;23.8
57374;BME280;43964;53.890;25.340;2023-05-21T14:07:19;1030.3;;;25.9;23.7
57374;BME280;43964;53.890;25.340;2023-05-21T14:12:19;1030.3;;;25.4;23.8
57374;BME280;43964;53.890;25.340;2023-05-21T14:16:44;1030.2;;;25.5;24.1
57374;BME280;43964;53.890;25.340;2023-05-21T14:21:31;1030.3;;;25.5;24.2
57374;BME280;43964;53.890;25.340;2023-05-21T14:26:57;1030.3;;;25.3;24.4
57374;BME280;43964;53.890;25.340;2023-05-21T14:32:19;1030.2;;;25.2;24.6
57374;BME280;43964;53.890;25.340;2023-05-21T14:36:55;1030.3;;;25.1;24.7
57374;BME280;43964;53.890;25.340;2023-05-21T14:41:57;1030.2;;;25.1;24.8
57374;BME280;43964;53.890;25.340;2023-05-21T14:46:57;1030.2;;;25.2;24.8
57374;BME280;43964;53.890;25.340;2023-05-21T14:51:43;1030.2;;;24.9;24.9
57374;BME280;43964;53.890;25.340;2023-05-21T14:56:49;1030.2;;;24.9;25
57374;BME280;43964;53.890;25.340;2023-05-21T15:01:31;1030.2;;;24.5;25.3
57374;BME280;43964;53.890;25.340;2023-05-21T15:07:07;1030.1;;;24.1;25.6
57374;BME280;43964;53.890;25.340;2023-05-21T15:12:19;1030.1;;;24;25.7
57374;BME280;43964;53.890;25.340;2023-05-21T15:16:33;1030;;;24.3;25.6
57374;BME280;43964;53.890;25.340;2023-05-21T15:22:21;1029.9;;;24.4;25.5
57374;BME280;43964;53.890;25.340;2023-05-21T15:26:31;1029.9;;;24.5;25.3
57374;BME280;43964;53.890;25.340;2023-05-21T15:31:51;1029.9;;;24.6;25.3
57374;BME280;43964;53.890;25.340;2023-05-21T15:37:05;1029.9;;;24.6;25.2
57374;BME280;43964;53.890;25.340;2023-05-21T15:41:33;1029.9;;;24.6;25
57374;BME280;43964;53.890;25.340;2023-05-21T15:47:19;1029.9;;;24.5;25.1
57374;BME280;43964;53.890;25.340;2023-05-21T15:51:45;1029.9;;;24.4;25.1
57374;BME280;43964;53.890;25.340;2023-05-21T15:57:19;1029.9;;;24.2;25.2
57374;BME280;43964;53.890;25.340;2023-05-21T16:01:51;1029.9;;;24.2;25.3
57374;BME280;43964;53.890;25.340;2023-05-21T16:06:31;1029.8;;;24.3;25.3
57374;BME280;43964;53.890;25.340;2023-05-21T16:11:57;1029.8;;;24.3;25.2
57374;BME280;43964;53.890;25.340;2023-05-21T16:16:32;1029.7;;;24.3;25.2
57374;BME280;43964;53.890;25.340;2023-05-21T16:21:31;1029.7;;;24.3;25.2
57374;BME280;43964;53.890;25.340;2023-05-21T16:27:19;1029.7;;;24.1;25.5
57374;BME280;43964;53.890;25.340;2023-05-21T16:31:31;1029.7;;;23.9;25.8
57374;BME280;43964;53.890;25.340;2023-05-21T16:37:17;1029.7;;;23.6;25.9
57374;BME280;43964;53.890;25.340;2023-05-21T16:42:17;1029.7;;;23.4;26.3
57374;BME280;43964;53.890;25.340;2023-05-21T16:46:53;1029.7;;;23.2;26.5
57374;BME280;43964;53.890;25.340;2023-05-21T16:51:37;1029.7;;;22.9;26.8
57374;BME280;43964;53.890;25.340;2023-05-21T16:56:59;1029.7;;;22.7;27.1
57374;BME280;43964;53.890;25.340;2023-05-21T17:31:55;1029.7;;;21.9;28.9
57374;BME280;43964;53.890;25.340;2023-05-21T17:36:45;1029.6;;;21.7;29.2
57374;BME280;43964;53.890;25.340;2023-05-21T17:42:03;1029.7;;;21.5;29.5
57374;BME280;43964;53.890;25.340;2023-05-21T17:47:17;1029.6;;;21.2;30.1
57374;BME280;43964;53.890;25.340;2023-05-21T17:52:17;1029.6;;;21;30.5
57374;BME280;43964;53.890;25.340;2023-05-21T17:56:43;1029.6;;;20.8;30.9
57374;BME280;43964;53.890;25.340;2023-05-21T18:01:33;1029.7;;;20.5;31.4
57374;BME280;43964;53.890;25.340;2023-05-21T18:07:03;1029.7;;;20.3;31.8
57374;BME280;43964;53.890;25.340;2023-05-21T18:11:43;1029.6;;;20.1;31.8
57374;BME280;43964;53.890;25.340;2023-05-21T18:17:17;1029.6;;;19.9;32.4
57374;BME280;43964;53.890;25.340;2023-05-21T18:21:57;1029.6;;;19.7;32.8
57374;BME280;43964;53.890;25.340;2023-05-21T18:27:17;1029.7;;;19.5;33.3
57374;BME280;43964;53.890;25.340;2023-05-21T18:32:03;1029.6;;;19.3;33.6
57374;BME280;43964;53.890;25.340;2023-05-21T18:36:55;1029.7;;;19.1;34.2
57374;BME280;43964;53.890;25.340;2023-05-21T18:42:03;1029.7;;;18.9;34.3
57374;BME280;43964;53.890;25.340;2023-05-21T18:46:31;1029.7;;;18.8;34.4
57374;BME280;43964;53.890;25.340;2023-05-21T18:52:09;1029.7;;;18.6;34.8
57374;BME280;43964;53.890;25.340;2023-05-21T18:57:07;1029.8;;;18.4;35.1
57374;BME280;43964;53.890;25.340;2023-05-21T19:01:57;1029.8;;;18.3;35.4
57374;BME280;43964;53.890;25.340;2023-05-21T19:07:21;1029.8;;;18.2;35.6
57374;BME280;43964;53.890;25.340;2023-05-21T19:11:55;1029.7;;;18.1;36.1
57374;BME280;43964;53.890;25.340;2023-05-21T19:16:51;1029.7;;;17.9;36.9
57374;BME280;43964;53.890;25.340;2023-05-21T19:22:19;1029.7;;;17.8;37.3
57374;BME280;43964;53.890;25.340;2023-05-21T19:27:03;1029.7;;;17.7;37.6
57374;BME280;43964;53.890;25.340;2023-05-21T19:32:09;1029.7;;;17.6;38
57374;BME280;43964;53.890;25.340;2023-05-21T19:36:31;1029.7;;;17.6;38.2
57374;BME280;43964;53.890;25.340;2023-05-21T19:41:31;1029.8;;;17.5;38.1
57374;BME280;43964;53.890;25.340;2023-05-21T19:46:31;1029.7;;;17.5;38.2
57374;BME280;43964;53.890;25.340;2023-05-21T19:51:31;1029.7;;;17.4;38.3
57374;BME280;43964;53.890;25.340;2023-05-21T19:56:51;1029.7;;;17.4;38.4
57374;BME280;43964;53.890;25.340;2023-05-21T20:02:17;1029.7;;;17.4;38.5
57374;BME280;43964;53.890;25.340;2023-05-21T20:06:31;1029.7;;;17.4;38.6
57374;BME280;43964;53.890;25.340;2023-05-21T20:12:19;1029.6;;;17.4;39
57374;BME280;43964;53.890;25.340;2023-05-21T20:17:11;1029.6;;;17.4;39.1
57374;BME280;43964;53.890;25.340;2023-05-21T20:21:57;1029.6;;;17.5;39.1
57374;BME280;43964;53.890;25.340;2023-05-21T20:26:43;1029.6;;;17.5;39.1
57374;BME280;43964;53.890;25.340;2023-05-21T20:32:19;1029.6;;;17.5;39
57374;BME280;43964;53.890;25.340;2023-05-21T20:37:19;1029.6;;;17.5;38.9
57374;BME280;43964;53.890;25.340;2023-05-21T20:41:31;1029.6;;;17.5;38.9
57374;BME280;43964;53.890;25.340;2023-05-21T20:47:21;1029.6;;;17.4;39
57374;BME280;43964;53.890;25.340;2023-05-21T20:52:11;1029.6;;;17.2;39.3
57374;BME280;43964;53.890;25.340;2023-05-21T20:56:43;1029.6;;;17;39.5
57374;BME280;43964;53.890;25.340;2023-05-21T21:02:03;1029.6;;;16.9;39.8
57374;BME280;43964;53.890;25.340;2023-05-21T21:06:41;1029.6;;;16.7;40.1
57374;BME280;43964;53.890;25.340;2023-05-21T21:12:06;1029.6;;;16.7;40.6
57374;BME280;43964;53.890;25.340;2023-05-21T21:16:43;1029.6;;;16.6;40.8
57374;BME280;43964;53.890;25.340;2023-05-21T21:22:13;1029.6;;;16.6;40.8
57374;BME280;43964;53.890;25.340;2023-05-21T21:27:19;1029.6;;;16.5;41.1
57374;BME280;43964;53.890;25.340;2023-05-21T21:31:31;1029.7;;;16.4;41.3
57374;BME280;43964;53.890;25.340;2023-05-21T21:37:05;1029.7;;;16.3;41.2
57374;BME280;43964;53.890;25.340;2023-05-21T21:41:55;1029.8;;;16.2;41.3
57374;BME280;43964;53.890;25.340;2023-05-21T21:46:49;1029.8;;;16.1;41.4
57374;BME280;43964;53.890;25.340;2023-05-21T21:52:19;1029.7;;;16;41.5
57374;BME280;43964;53.890;25.340;2023-05-21T21:56:49;1029.8;;;16;41.5
57374;BME280;43964;53.890;25.340;2023-05-21T22:01:43;1029.8;;;16;41.6
57374;BME280;43964;53.890;25.340;2023-05-21T22:06:53;1029.7;;;15.9;42
57374;BME280;43964;53.890;25.340;2023-05-21T22:11:55;1029.7;;;15.8;42.3
57374;BME280;43964;53.890;25.340;2023-05-21T22:16:43;1029.7;;;15.7;42.5
57374;BME280;43964;53.890;25.340;2023-05-21T22:21:31;1029.7;;;15.7;42.7
57374;BME280;43964;53.890;25.340;2023-05-21T22:26:31;1029.7;;;15.6;42.9
57374;BME280;43964;53.890;25.340;2023-05-21T22:32:17;1029.7;;;15.5;43
57374;BME280;43964;53.890;25.340;2023-05-21T22:36:41;1029.7;;;15.4;43
57374;BME280;43964;53.890;25.340;2023-05-21T22:42:19;1029.7;;;15.4;42.9
57374;BME280;43964;53.890;25.340;2023-05-21T22:47:11;1029.7;;;15.4;42.9
57374;BME280;43964;53.890;25.340;2023-05-21T22:51:55;1029.7;;;15.4;43
57374;BME280;43964;53.890;25.340;2023-05-21T22:56:57;1029.7;;;15.3;43
57374;BME280;43964;53.890;25.340;2023-05-21T23:02:21;1029.6;;;15.3;43.1
57374;BME280;43964;53.890;25.340;2023-05-21T23:07:21;1029.6;;;15.3;43.3
57374;BME280;43964;53.890;25.340;2023-05-21T23:11:31;1029.5;;;15.2;43.5
57374;BME280;43964;53.890;25.340;2023-05-21T23:17:21;1029.5;;;15.2;43.6
57374;BME280;43964;53.890;25.340;2023-05-21T23:21:57;1029.5;;;15.1;43.6
57374;BME280;43964;53.890;25.340;2023-05-21T23:26:43;1029.5;;;15.1;43.5
57374;BME280;43964;53.890;25.340;2023-05-21T23:31:43;1029.5;;;15.1;43.4
57374;BME280;43964;53.890;25.340;2023-05-21T23:36:43;1029.5;;;15.1;43.4
57374;BME280;43964;53.890;25.340;2023-05-21T23:42:05;1029.4;;;15.1;43.3
57374;BME280;43964;53.890;25.340;2023-05-21T23:47:01;1029.4;;;15.1;43.4
57374;BME280;43964;53.890;25.340;2023-05-21T23:52:09;1029.4;;;15;43.4
57374;BME280;43964;53.890;25.340;2023-05-21T23:57:19;1029.4;;;15;43.5
